Larissa — C4TK2 — position and weather

sailwx.info

Track history (hours):
 
Tides and Currents Weather Stations Pressure Air Temp Water Temp Dewpoint Dewpoint Depression Visibility Wind Speed Wind Dir Waves Ship Positions

Larissa

Last reported at 2018-Jan-21 16:18 UTC. Time now 2018-Jan-22 23:52 UTC.
Position N 33°41' W 007°39'.

Length 136 m; draft 7.8 m.

Type: Ship (hazmat cat A). MMSI: 212641000.

Date/timePositionNaut miles runAvg speedWind from/ knotsBaromVisibWave heightAir tempDewpointWater temp
2018-Jan-21 16:18N 33°41' W 007°39'0 0.0
2018-Jan-21 15:51N 33°41' W 007°39'  
2018-Jan-18 12:13N 36°32' W 009°38'315.3
2018-Jan-18 12:00N 36°35' W 009°39'815.6
2018-Jan-18 11:30N 36°43' W 009°41'815.9
2018-Jan-18 11:00N 36°50' W 009°43'2714.9
2018-Jan-18 09:11N 37°15' W 009°28'615.2
2018-Jan-18 08:47N 37°19' W 009°23'1015.5
2018-Jan-18 08:07N 37°27' W 009°15'215.5
2018-Jan-18 08:00N 37°28' W 009°13'815.7
2018-Jan-18 07:30N 37°34' W 009°07'815.9
2018-Jan-18 07:01N 37°40' W 009°00'816.0
2018-Jan-18 06:30N 37°47' W 008°55'815.5
2018-Jan-18 06:00N 37°54' W 008°50'2 4.2
2018-Jan-18 05:30N 37°56' W 008°51'0 0.0
2018-Jan-18 04:58N 37°56' W 008°51'0 0.0
2018-Jan-18 04:25N 37°56' W 008°51'0 0.0
2018-Jan-18 03:58N 37°56' W 008°51'0 0.0
2018-Jan-18 03:28N 37°56' W 008°51'0 0.0
2018-Jan-18 02:58N 37°56' W 008°51'0 0.0
2018-Jan-18 02:25N 37°56' W 008°51'0 0.0
2018-Jan-18 01:55N 37°56' W 008°51'0 0.0
2018-Jan-18 01:13N 37°56' W 008°51'0 0.0
2018-Jan-18 00:58N 37°56' W 008°51'0 0.0
2018-Jan-17 23:55N 37°56' W 008°51'  
2018-Jan-12 14:32N 43°33' W 005°41'0 0.0
2018-Jan-12 14:30N 43°33' W 005°41'0 0.0
2018-Jan-12 14:00N 43°33' W 005°41'0 0.0
2018-Jan-12 13:30N 43°33' W 005°41'0 0.0
2018-Jan-12 12:59N 43°33' W 005°41'0 0.0
2018-Jan-12 12:30N 43°33' W 005°41'0 0.0
2018-Jan-12 12:00N 43°33' W 005°41'0 0.0
2018-Jan-12 11:30N 43°33' W 005°41'0 0.0
2018-Jan-12 10:57N 43°33' W 005°41'0 0.0
2018-Jan-12 10:30N 43°33' W 005°41'0 0.0
2018-Jan-12 09:59N 43°33' W 005°41'0 0.0
2018-Jan-12 09:29N 43°33' W 005°41'0 0.0
2018-Jan-12 09:00N 43°33' W 005°41'0 0.0
2018-Jan-12 08:30N 43°33' W 005°41'0 0.3
2018-Jan-12 07:59N 43°34' W 005°41'2 4.8
2018-Jan-12 07:30N 43°36' W 005°40'4 8.1
2018-Jan-12 07:00N 43°39' W 005°43'4 8.4
2018-Jan-12 06:30N 43°42' W 005°48'611.3
2018-Jan-12 05:59N 43°42' W 005°56'715.5
2018-Jan-12 05:30N 43°44' W 006°06'  
Track history (hours):
 
Tides and Currents Weather Stations Pressure Air Temp Water Temp Dewpoint Dewpoint Depression Visibility Wind Speed Wind Dir Waves Ship Positions

Larissa

Last reported at 2018-Jan-21 16:18 UTC. Time now 2018-Jan-22 23:52 UTC.
Position N 33°41' W 007°39'.

Length 136 m; draft 7.8 m.

Type: Ship (hazmat cat A). MMSI: 212641000.

Date/timePositionNaut miles runAvg speedWind from/ knotsBaromVisibWave heightAir tempDewpointWater temp
2018-Jan-21 16:18N 33°41' W 007°39'0 0.0
2018-Jan-21 15:51N 33°41' W 007°39'  
2018-Jan-18 12:13N 36°32' W 009°38'315.3
2018-Jan-18 12:00N 36°35' W 009°39'815.6
2018-Jan-18 11:30N 36°43' W 009°41'815.9
2018-Jan-18 11:00N 36°50' W 009°43'2714.9
2018-Jan-18 09:11N 37°15' W 009°28'615.2
2018-Jan-18 08:47N 37°19' W 009°23'1015.5
2018-Jan-18 08:07N 37°27' W 009°15'215.5
2018-Jan-18 08:00N 37°28' W 009°13'815.7
2018-Jan-18 07:30N 37°34' W 009°07'815.9
2018-Jan-18 07:01N 37°40' W 009°00'816.0
2018-Jan-18 06:30N 37°47' W 008°55'815.5
2018-Jan-18 06:00N 37°54' W 008°50'2 4.2
2018-Jan-18 05:30N 37°56' W 008°51'0 0.0
2018-Jan-18 04:58N 37°56' W 008°51'0 0.0
2018-Jan-18 04:25N 37°56' W 008°51'0 0.0
2018-Jan-18 03:58N 37°56' W 008°51'0 0.0
2018-Jan-18 03:28N 37°56' W 008°51'0 0.0
2018-Jan-18 02:58N 37°56' W 008°51'0 0.0
2018-Jan-18 02:25N 37°56' W 008°51'0 0.0
2018-Jan-18 01:55N 37°56' W 008°51'0 0.0
2018-Jan-18 01:13N 37°56' W 008°51'0 0.0
2018-Jan-18 00:58N 37°56' W 008°51'0 0.0
2018-Jan-17 23:55N 37°56' W 008°51'  
2018-Jan-12 14:32N 43°33' W 005°41'0 0.0
2018-Jan-12 14:30N 43°33' W 005°41'0 0.0
2018-Jan-12 14:00N 43°33' W 005°41'0 0.0
2018-Jan-12 13:30N 43°33' W 005°41'0 0.0
2018-Jan-12 12:59N 43°33' W 005°41'0 0.0
2018-Jan-12 12:30N 43°33' W 005°41'0 0.0
2018-Jan-12 12:00N 43°33' W 005°41'0 0.0
2018-Jan-12 11:30N 43°33' W 005°41'0 0.0
2018-Jan-12 10:57N 43°33' W 005°41'0 0.0
2018-Jan-12 10:30N 43°33' W 005°41'0 0.0
2018-Jan-12 09:59N 43°33' W 005°41'0 0.0
2018-Jan-12 09:29N 43°33' W 005°41'0 0.0
2018-Jan-12 09:00N 43°33' W 005°41'0 0.0
2018-Jan-12 08:30N 43°33' W 005°41'0 0.3
2018-Jan-12 07:59N 43°34' W 005°41'2 4.8
2018-Jan-12 07:30N 43°36' W 005°40'4 8.1
2018-Jan-12 07:00N 43°39' W 005°43'4 8.4
2018-Jan-12 06:30N 43°42' W 005°48'611.3
2018-Jan-12 05:59N 43°42' W 005°56'715.5
2018-Jan-12 05:30N 43°44' W 006°06'  

Dump ship's entire track history